Terminal Aerodrome Forecast
Issued by NWS Cleveland, OH

Home | Current Version | Previous Version | Graphics & Text | Print | Product List | Glossary On
Versions: 1 2 3 4 5 6 7 8 9 10 11 12 13 14 15 16
000
FTUS41 KCLE 272100 AAB
TAFTOL
TAF AMD
KTOL 272116Z 2721/2818 27012KT P6SM OVC030
      TEMPO 2721/2724 2SM -SHSN OVC020
     FM280300 30008KT P6SM OVC040
     FM280600 27006KT P6SM SCT035
     FM281200 22006KT P6SM BKN200=

USA.gov is the U.S. government's official web portal to all federal, state and local government web resources and services.